Beaver County Airport Beaver Falls US
ICAO: KBVI
IATA: BFP
Category: Medium
Scheduled Services: No

Elevation: 1253 ft
TransAlt. 18000 ft.

Airport Communications:
PITTSBURGH APP/DEP:124.75
ATIS:118.35
PITTSBURGH CLNC DEL:124.85
CTAF:120.3
GND:121.8
ALTOONA RDO:115.8
TWR:120.3

KBVI Zoom In..

Runways:

(A) RW 10 length 4501 ft width 100 ft
LOC 109.30 / hdg 101

(B) RW 28 length 4501 ft width 100 ft
LOC 109.30 / hdg 281

Location; KBVI
Day. 05 / Time. 18.15 Zulu
* Altimeter: 30.14
* Temperature: 25° c. 77°f.
* Wind from: 270° Speed 06 kn.
Dewpoint: 13° c.
Visibility: 10 Statute Miles.
Clouds: Scattered 4500 ft.
Clouds: Scattered 5000 ft.

KBVI 051815Z AUTO 27006KT 10SM SCT045 SCT050 25/13 A3014 RMK AO2 T02480125

Going to: --> -->


Wind From 270°
Speed 06 kn.

 
 
jpsmedia worldairports.se 2020   terms of use